createdAt,value
2018-10-17T00:02:39.187Z,14.20
2018-10-17T00:07:33.603Z,12.87
2018-10-17T00:12:28.019Z,14.43
2018-10-17T00:17:22.404Z,14.70
2018-10-17T00:22:16.825Z,14.33
2018-10-17T00:27:11.216Z,14.27
2018-10-17T00:32:06.092Z,15.00
2018-10-17T00:37:00.555Z,14.57
2018-10-17T00:41:54.901Z,14.23
2018-10-17T00:46:49.339Z,14.47
2018-10-17T00:51:43.737Z,13.97
2018-10-17T00:56:38.144Z,13.83
2018-10-17T01:01:32.581Z,14.23
2018-10-17T01:06:26.975Z,14.50
2018-10-17T01:11:21.386Z,14.23
2018-10-17T01:16:15.780Z,14.87
2018-10-17T01:21:10.224Z,14.43
2018-10-17T01:26:04.664Z,15.13
2018-10-17T01:30:59.061Z,14.70
2018-10-17T01:35:53.448Z,14.20
2018-10-17T01:40:47.851Z,14.97
2018-10-17T01:45:42.250Z,15.00
2018-10-17T01:50:36.640Z,13.93
2018-10-17T01:55:31.056Z,15.13
2018-10-17T02:00:25.496Z,15.73
2018-10-17T02:05:19.898Z,15.50
2018-10-17T02:10:14.298Z,15.27
2018-10-17T02:15:08.679Z,16.13
2018-10-17T02:20:03.079Z,17.23
2018-10-17T02:24:57.474Z,16.90
2018-10-17T02:29:51.953Z,17.10
2018-10-17T02:34:51.522Z,16.27
2018-10-17T02:39:45.988Z,16.23
2018-10-17T02:44:40.318Z,17.03
2018-10-17T02:49:34.712Z,15.87
2018-10-17T02:54:29.136Z,16.80
2018-10-17T02:59:23.550Z,16.83
2018-10-17T03:04:17.968Z,17.47
2018-10-17T03:09:12.369Z,18.27
2018-10-17T03:14:06.778Z,17.47
2018-10-17T03:19:01.246Z,17.83
2018-10-17T03:23:55.589Z,17.97
2018-10-17T03:28:49.981Z,18.50
2018-10-17T03:33:44.424Z,18.87
2018-10-17T03:38:38.836Z,18.97
2018-10-17T03:43:33.237Z,18.47
2018-10-17T03:48:27.733Z,18.60
2018-10-17T03:53:22.168Z,19.03
2018-10-17T03:58:16.645Z,17.83
2018-10-17T04:03:11.107Z,18.77
2018-10-17T04:08:05.533Z,18.77
2018-10-17T04:13:00.020Z,19.43
2018-10-17T04:17:54.440Z,17.17
2018-10-17T04:22:55.370Z,19.93
2018-10-17T04:27:49.716Z,19.67
2018-10-17T04:32:44.141Z,20.00
2018-10-17T04:37:38.560Z,18.97
2018-10-17T04:42:33.004Z,19.27
2018-10-17T04:47:27.498Z,18.80
2018-10-17T04:52:21.924Z,19.60
2018-10-17T04:57:16.306Z,19.27
2018-10-17T05:02:10.791Z,18.27
2018-10-17T05:07:05.462Z,17.97
2018-10-17T05:11:59.929Z,16.77
2018-10-17T05:16:54.489Z,17.17
2018-10-17T05:21:48.888Z,17.00
2018-10-17T05:26:43.350Z,17.93
2018-10-17T05:31:37.860Z,18.73
2018-10-17T05:36:32.388Z,19.53
2018-10-17T05:41:26.877Z,19.07
2018-10-17T05:46:21.380Z,19.43
2018-10-17T05:51:15.961Z,18.67
2018-10-17T05:56:10.553Z,18.07
2018-10-17T06:01:05.468Z,17.67
2018-10-17T06:05:59.908Z,17.83
2018-10-17T06:10:54.330Z,22.57
2018-10-17T06:15:48.820Z,18.00
2018-10-17T06:20:43.372Z,16.40
2018-10-17T06:25:37.838Z,16.23
2018-10-17T06:30:32.364Z,16.57
2018-10-17T06:35:27.732Z,16.83
2018-10-17T06:40:22.421Z,19.57
2018-10-17T06:45:17.368Z,17.33
2018-10-17T06:50:11.902Z,17.43
2018-10-17T06:55:07.530Z,17.23
2018-10-17T07:00:01.986Z,18.07
2018-10-17T07:04:56.805Z,19.63
2018-10-17T07:26:07.221Z,19.73
2018-10-17T07:31:01.943Z,21.07
2018-10-17T07:35:56.928Z,22.00
2018-10-17T07:40:51.849Z,21.50
2018-10-17T07:45:51.567Z,22.50
2018-10-17T08:01:39.068Z,20.30
2018-10-17T08:06:34.729Z,21.87
2018-10-17T08:11:29.675Z,21.40
2018-10-17T08:16:24.361Z,20.03
2018-10-17T08:37:33.506Z,20.47
2018-10-17T08:42:27.516Z,21.30
2018-10-17T08:47:24.176Z,20.13
2018-10-17T08:52:23.030Z,19.77
2018-10-17T08:57:19.613Z,20.83
2018-10-17T09:02:15.250Z,22.30
2018-10-17T09:07:09.902Z,21.37
2018-10-17T09:12:05.494Z,21.20
2018-10-17T09:17:04.793Z,21.33
2018-10-17T09:38:13.751Z,20.70
2018-10-17T09:43:09.465Z,20.40
2018-10-17T09:48:05.051Z,21.70
2018-10-17T09:52:59.730Z,19.90
2018-10-17T09:57:55.542Z,20.87
2018-10-17T10:19:05.546Z,20.43
2018-10-17T10:24:00.709Z,19.43
2018-10-17T10:29:05.442Z,19.03
2018-10-17T10:34:00.346Z,18.57
2018-10-17T10:38:55.061Z,19.63
2018-10-17T10:54:39.398Z,18.20
2018-10-17T10:59:34.626Z,18.27
2018-10-17T11:04:30.811Z,17.63
2018-10-17T11:09:25.485Z,17.80
2018-10-17T11:30:35.218Z,15.77
2018-10-17T11:35:30.326Z,15.33
2018-10-17T11:40:25.712Z,13.97
2018-10-17T11:45:20.454Z,13.30
2018-10-17T11:50:15.278Z,13.20
2018-10-17T12:11:24.477Z,11.40
2018-10-17T12:16:19.297Z,10.00
2018-10-17T12:21:14.214Z,10.50
2018-10-17T12:26:08.718Z,9.73
2018-10-17T12:36:28.653Z,10.20
2018-10-17T12:41:23.475Z,11.43
2018-10-17T12:46:17.973Z,10.57
2018-10-17T12:51:18.384Z,9.83
2018-10-17T12:56:26.727Z,10.60
2018-10-17T13:01:23.358Z,11.30
2018-10-17T13:06:18.035Z,11.10
2018-10-17T13:11:12.809Z,10.00
2018-10-17T13:16:10.376Z,11.07
2018-10-17T13:21:05.900Z,9.80
2018-10-17T13:26:00.818Z,10.10
2018-10-17T13:30:55.411Z,9.63
2018-10-17T13:35:50.374Z,9.13
2018-10-17T13:40:45.289Z,10.13
2018-10-17T13:45:39.911Z,9.43
2018-10-17T13:50:35.677Z,9.47
2018-10-17T13:55:34.945Z,9.37
2018-10-17T14:00:30.049Z,8.43
2018-10-17T14:05:33.884Z,8.70
2018-10-17T14:10:28.639Z,8.00
2018-10-17T14:15:24.181Z,7.90
2018-10-17T14:20:19.857Z,7.90
2018-10-17T14:25:15.487Z,8.03
2018-10-17T14:30:10.654Z,8.27
2018-10-17T14:35:06.621Z,8.27
2018-10-17T14:40:01.778Z,7.60
2018-10-17T14:44:56.310Z,7.77
2018-10-17T14:49:51.692Z,8.03
2018-10-17T14:54:46.966Z,7.57
2018-10-17T14:59:42.422Z,7.90
2018-10-17T15:04:37.004Z,7.50
2018-10-17T15:09:31.617Z,6.67
2018-10-17T15:14:26.302Z,7.63
2018-10-17T15:19:21.383Z,8.60
2018-10-17T15:24:16.634Z,9.73
2018-10-17T15:29:12.340Z,10.50
2018-10-17T15:34:07.128Z,10.27
2018-10-17T15:39:02.652Z,11.83
2018-10-17T15:43:57.224Z,12.00
2018-10-17T15:48:51.744Z,12.37
2018-10-17T15:53:47.309Z,12.57
2018-10-17T15:58:42.612Z,8.63
2018-10-17T16:03:37.685Z,7.43
2018-10-17T16:08:32.216Z,6.80
2018-10-17T16:13:26.739Z,7.17
2018-10-17T16:18:21.372Z,6.80
2018-10-17T16:23:15.839Z,6.40
2018-10-17T16:28:11.364Z,6.13
2018-10-17T16:33:15.817Z,6.57
2018-10-17T16:38:23.109Z,6.47
2018-10-17T16:43:17.985Z,6.53
2018-10-17T16:48:12.518Z,6.53
2018-10-17T16:53:07.049Z,7.10
2018-10-17T16:58:01.546Z,7.07
2018-10-17T17:02:55.945Z,7.40
2018-10-17T17:07:50.370Z,7.37
2018-10-17T17:12:44.977Z,6.97
2018-10-17T17:17:39.464Z,7.57
2018-10-17T17:22:33.918Z,7.47
2018-10-17T17:27:28.377Z,9.00
2018-10-17T17:32:23.060Z,10.10
2018-10-17T17:37:17.490Z,10.47
2018-10-17T17:42:11.987Z,10.07
2018-10-17T17:47:07.555Z,12.00
2018-10-17T17:52:02.067Z,10.30
2018-10-17T17:56:56.468Z,10.90
2018-10-17T18:01:51.004Z,14.07
2018-10-17T18:06:45.472Z,13.10
2018-10-17T18:11:39.888Z,14.17
2018-10-17T18:16:34.356Z,15.23
2018-10-17T18:21:28.780Z,15.13
2018-10-17T18:26:23.392Z,16.10
2018-10-17T18:31:18.427Z,15.83
2018-10-17T18:36:12.897Z,15.47
2018-10-17T18:41:07.414Z,15.17
2018-10-17T18:46:01.864Z,15.47
2018-10-17T18:50:56.468Z,15.07
2018-10-17T18:55:50.916Z,15.87
2018-10-17T19:00:45.268Z,15.03
2018-10-17T19:05:39.773Z,15.57
2018-10-17T19:10:34.276Z,16.00
2018-10-17T19:15:29.165Z,15.60
2018-10-17T19:20:24.673Z,15.93
2018-10-17T19:25:19.171Z,16.03
2018-10-17T19:30:13.756Z,15.67
2018-10-17T19:35:08.295Z,16.40
2018-10-17T19:40:02.746Z,16.17
2018-10-17T19:44:57.258Z,15.43
2018-10-17T19:49:51.670Z,16.53
2018-10-17T19:54:46.138Z,15.73
2018-10-17T19:59:40.578Z,16.33
2018-10-17T20:04:35.056Z,16.33
2018-10-17T20:09:29.629Z,15.73
2018-10-17T20:14:24.096Z,15.50
2018-10-17T20:19:18.811Z,15.30
2018-10-17T20:24:13.260Z,15.47
2018-10-17T20:29:07.767Z,14.27
2018-10-17T20:34:02.237Z,14.70
2018-10-17T20:38:56.672Z,12.47
2018-10-17T20:43:51.195Z,14.10
2018-10-17T20:48:45.613Z,15.40
2018-10-17T20:53:40.025Z,16.20
2018-10-17T20:58:34.458Z,15.57
2018-10-17T21:03:28.888Z,14.73
2018-10-17T21:08:23.325Z,14.70
2018-10-17T21:13:17.741Z,16.10
2018-10-17T21:18:13.238Z,14.53
2018-10-17T21:23:07.656Z,15.37
2018-10-17T21:28:02.142Z,16.23
2018-10-17T21:32:56.545Z,15.20
2018-10-17T21:37:51.082Z,15.47
2018-10-17T21:42:45.397Z,15.27
2018-10-17T21:47:39.855Z,15.97
2018-10-17T21:52:34.244Z,16.23
2018-10-17T21:57:28.712Z,15.33
2018-10-17T22:02:23.276Z,14.90
2018-10-17T22:07:17.713Z,15.67
2018-10-17T22:12:12.197Z,16.13
2018-10-17T22:17:08.084Z,15.57
2018-10-17T22:22:02.710Z,15.37
2018-10-17T22:26:57.256Z,16.03
2018-10-17T22:31:51.872Z,14.60
2018-10-17T22:36:46.311Z,15.70
2018-10-17T22:41:40.797Z,15.67
2018-10-17T22:46:35.324Z,17.20
2018-10-17T22:51:29.764Z,16.87
2018-10-17T22:56:24.213Z,16.27
2018-10-17T23:01:18.640Z,17.33
2018-10-17T23:06:13.153Z,17.33
2018-10-17T23:11:07.632Z,17.30
2018-10-17T23:16:02.069Z,16.83
2018-10-17T23:20:56.485Z,16.27
2018-10-17T23:25:50.932Z,16.40
2018-10-17T23:30:45.328Z,16.00
2018-10-17T23:35:39.786Z,17.00
2018-10-17T23:40:34.289Z,16.80
2018-10-17T23:45:28.800Z,17.93
2018-10-17T23:50:23.320Z,18.80
2018-10-17T23:55:17.736Z,17.73
